CYHUCYSC

Guest
Details From CYHU - St Hubert
To CYSC - Sherbrooke
Flight Number -
Tags Generated
Created
Modified
Stats Distance 73 nm / 135 km
Max Altitude 0 ft / 0 m
Waypoints 2
Social Downloads 0
Likes 0
Share VATSIM

Download

Looking for another format? Having issues loading an existing format? Contact us
Advertisement - Login to hide

Notes

Generated

Route

CYHU CYSC

ID Type Via Altitude Latitude Longitude Leg Dist Tot Dist Heading (true) Name
O CYHU APT - 0 ft / 0 m 45.51032˚ -73.42670˚ - 0 nm - -
O CYSC APT - 0 ft / 0 m 45.44246˚ -71.70161˚ 72 nm 72 nm 93° / 94° -

Altitude Profile

Advertisement - Login to hide

CYHU

Details ICAO CYHU (YHU)
Name St Hubert
Region Canada
Timezone America/Montreal (UTC-5.0)
Stats Elevation 90 ft / 27 m (AMSL)
Location 45.514297° -73.416351°
Runways 3
Magnetic Variation 14.499° W

METAR

CYHU 160500Z AUTO 03007KT 1 1/2SM -SN OVC024 M13/M15 A2980 RMK SLP096

Decode

TAF

TAF TAF AMD CYHU 160445Z 1604/1624 02006KT 6SM -SN OVC030 TEMPO 1604/1611 11/2SM -SN OVC012 FM161100 03005KT 5SM -SN OVC015 TEMPO 1611/1617 P6SM NSW OVC025 BECMG 1613/1615 25010KT FM161700 25012G22KT P6SM BKN025 BECMG 1621/1623 26010KT RMK FCST BASED ON AUTO OBS. NXT FCST BY 160600Z

Decode

Departure Runways

ID Width Length Bearing (true) Bearing (mag) Surface Threshold Offset Overrun Length
06L 150 ft / 46 m 7,870 ft / 2,399 m 46.95° 61.45° Asphalt 1,100 ft / 335 m 0 ft / 0 m
06R 100 ft / 30 m 3,874 ft / 1,181 m 47.16° 61.66° Asphalt 0 ft / 0 m 0 ft / 0 m
10 150 ft / 46 m 2,787 ft / 849 m 83.75° 98.25° Asphalt 0 ft / 0 m 0 ft / 0 m
24L 100 ft / 30 m 3,874 ft / 1,181 m 227.16° 241.66° Asphalt 0 ft / 0 m 0 ft / 0 m
24R 150 ft / 46 m 7,870 ft / 2,399 m 226.97° 241.47° Asphalt 0 ft / 0 m 90 ft / 27 m
28 150 ft / 46 m 2,787 ft / 849 m 263.75° 278.25° Asphalt 0 ft / 0 m 0 ft / 0 m

CYSC

Details ICAO CYSC (YSC)
Name SHERBROOKE
Region Canada
Timezone America/Montreal (UTC-5.0)
Stats Elevation 792 ft / 241 m (AMSL)
Location 45.438492° -71.691369°
Runways 1
Magnetic Variation 15.266° W

METAR

CYSC 160500Z AUTO VRB02KT 1 1/2SM -SN OVC014 M13/M15 A2975 RMK SLP094

Decode

TAF

TAF CYSC 152338Z 1600/1603 VRB03KT P6SM FEW020 TEMPO 1602/1603 5SM -SN BKN020 RMK FCST BASED ON AUTO OBS. NXT FCST WILL BE ISSUED AT 161045Z

Decode

Destination Runways

ID Width Length Bearing (true) Bearing (mag) Surface Threshold Offset Overrun Length
13 150 ft / 46 m 5,988 ft / 1,825 m 118.88° 134.15° Asphalt 0 ft / 0 m 0 ft / 0 m
31 150 ft / 46 m 5,988 ft / 1,825 m 298.90° 314.17° Asphalt 0 ft / 0 m 0 ft / 0 m

Popular Alternatives